createdAt,value
2022-11-21T00:01:27.848Z,7.60
2022-11-21T00:06:33.137Z,7.60
2022-11-21T00:11:38.160Z,7.70
2022-11-21T00:19:15.710Z,7.80
2022-11-21T00:29:26.997Z,7.80
2022-11-21T00:34:32.047Z,7.90
2022-11-21T00:44:42.101Z,8.00
2022-11-21T00:47:14.858Z,8.00
2022-11-21T00:52:19.497Z,8.00
2022-11-21T01:05:04.556Z,8.00
2022-11-21T01:07:36.525Z,8.00
2022-11-21T01:10:09.337Z,8.10
2022-11-21T01:12:41.655Z,8.00
2022-11-21T01:15:13.763Z,8.00
2022-11-21T01:30:53.577Z,7.80
2022-11-21T01:33:25.458Z,7.80
2022-11-21T01:43:37.113Z,7.80
2022-11-21T01:49:03.967Z,7.70
2022-11-21T01:52:09.351Z,7.80
2022-11-21T01:55:00.807Z,7.70
2022-11-21T01:57:41.683Z,7.60
2022-11-21T02:00:38.456Z,7.60
2022-11-21T02:03:16.001Z,7.60
2022-11-21T02:05:49.404Z,7.60
2022-11-21T02:08:23.683Z,7.60
2022-11-21T02:11:27.703Z,7.50
2022-11-21T02:14:00.798Z,7.60
2022-11-21T02:16:35.223Z,7.70
2022-11-21T02:19:15.775Z,7.60
2022-11-21T02:22:21.385Z,7.70
2022-11-21T02:25:13.085Z,7.60
2022-11-21T02:27:47.279Z,7.70
2022-11-21T02:38:16.388Z,7.80
2022-11-21T02:41:13.728Z,7.70
2022-11-21T02:43:57.826Z,7.70
2022-11-21T02:46:29.773Z,7.60
2022-11-21T02:49:07.968Z,7.60
2022-11-21T02:51:39.844Z,7.60
2022-11-21T03:04:23.307Z,7.60
2022-11-21T03:06:56.084Z,7.60
2022-11-21T03:14:38.037Z,7.70
2022-11-21T03:17:10.838Z,7.80
2022-11-21T03:19:42.773Z,7.70
2022-11-21T03:24:48.599Z,7.70
2022-11-21T03:27:20.496Z,7.70
2022-11-21T03:32:25.666Z,7.70
2022-11-21T03:37:30.660Z,7.80
2022-11-21T03:40:03.578Z,7.70
2022-11-21T03:42:36.345Z,7.70
2022-11-21T03:45:09.737Z,7.70
2022-11-21T03:47:42.468Z,7.70
2022-11-21T03:50:18.484Z,7.70
2022-11-21T03:55:23.965Z,7.70
2022-11-21T03:57:55.861Z,7.60
2022-11-21T04:03:01.583Z,7.60
2022-11-21T04:05:34.367Z,7.60
2022-11-21T04:08:06.386Z,7.50
2022-11-21T04:10:38.784Z,7.50
2022-11-21T04:18:16.857Z,7.40
2022-11-21T04:20:58.837Z,7.40
2022-11-21T04:28:37.361Z,7.40
2022-11-21T04:31:11.098Z,7.50
2022-11-21T04:33:44.239Z,7.40
2022-11-21T04:38:49.403Z,7.30
2022-11-21T04:41:21.853Z,7.30
2022-11-21T04:43:53.774Z,7.30
2022-11-21T04:46:26.557Z,7.30
2022-11-21T04:48:58.889Z,7.40
2022-11-21T04:51:31.199Z,7.40
2022-11-21T04:56:37.195Z,7.50
2022-11-21T05:01:44.714Z,7.50
2022-11-21T05:04:16.660Z,7.50
2022-11-21T05:06:49.375Z,7.50
2022-11-21T05:09:21.768Z,7.50
2022-11-21T05:12:12.268Z,7.50
2022-11-21T05:14:45.256Z,7.50
2022-11-21T05:17:17.151Z,7.50
2022-11-21T05:22:22.283Z,7.50
2022-11-21T05:32:33.716Z,7.70
2022-11-21T05:35:07.934Z,7.70
2022-11-21T05:37:40.551Z,7.70
2022-11-21T05:40:12.970Z,7.70
2022-11-21T05:43:04.140Z,7.70
2022-11-21T05:48:08.948Z,7.70
2022-11-21T05:50:41.809Z,7.70
2022-11-21T05:53:13.886Z,7.70
2022-11-21T05:55:46.901Z,7.80
2022-11-21T06:00:59.919Z,7.80
2022-11-21T06:03:40.032Z,7.70
2022-11-21T06:06:14.537Z,7.70
2022-11-21T06:11:19.913Z,7.70
2022-11-21T06:13:56.171Z,7.70
2022-11-21T06:16:28.670Z,7.70
2022-11-21T06:19:01.015Z,7.70
2022-11-21T06:21:35.073Z,7.70
2022-11-21T06:26:40.687Z,7.70
2022-11-21T06:29:13.454Z,7.70
2022-11-21T06:31:45.761Z,7.70
2022-11-21T06:44:29.371Z,7.60
2022-11-21T06:47:02.407Z,7.60
2022-11-21T06:52:06.969Z,7.60
2022-11-21T06:54:39.699Z,7.60
2022-11-21T06:57:12.082Z,7.60
2022-11-21T06:59:44.473Z,7.50
2022-11-21T07:02:16.569Z,7.50
2022-11-21T07:04:49.355Z,7.60
2022-11-21T07:12:46.650Z,7.60
2022-11-21T07:15:18.511Z,7.60
2022-11-21T07:20:23.553Z,7.70
2022-11-21T07:28:09.747Z,7.80
2022-11-21T07:30:42.485Z,7.80
2022-11-21T07:38:19.904Z,7.80
2022-11-21T07:40:53.203Z,7.80
2022-11-21T07:48:32.286Z,7.90
2022-11-21T07:51:07.341Z,8.00
2022-11-21T07:53:39.904Z,8.00
2022-11-21T07:56:11.822Z,8.00
2022-11-21T07:58:44.576Z,8.00
2022-11-21T08:01:17.740Z,8.00
2022-11-21T08:03:50.158Z,8.00
2022-11-21T08:11:28.236Z,8.20
2022-11-21T08:16:33.715Z,8.40
2022-11-21T08:19:06.601Z,8.40
2022-11-21T08:21:39.354Z,8.30
2022-11-21T08:29:20.602Z,8.20
2022-11-21T08:31:52.700Z,8.20
2022-11-21T08:34:25.479Z,8.20
2022-11-21T08:36:59.282Z,8.10
2022-11-21T08:42:04.743Z,8.20
2022-11-21T08:47:09.861Z,8.30
2022-11-21T08:49:41.731Z,8.40
2022-11-21T08:52:17.664Z,8.50
2022-11-21T08:54:49.541Z,8.70
2022-11-21T08:57:22.237Z,9.10
2022-11-21T09:02:27.233Z,9.00
2022-11-21T09:05:00.258Z,8.80
2022-11-21T09:07:32.244Z,8.70
2022-11-21T09:12:37.777Z,8.70
2022-11-21T09:15:31.070Z,8.90
2022-11-21T09:18:04.914Z,9.20
2022-11-21T09:20:43.723Z,9.30
2022-11-21T09:23:16.993Z,9.80
2022-11-21T09:28:22.610Z,10.00
2022-11-21T09:33:27.736Z,10.00
2022-11-21T09:36:01.174Z,9.90
2022-11-21T09:38:33.147Z,10.60
2022-11-21T09:41:52.605Z,10.80
2022-11-21T09:45:05.991Z,10.90
2022-11-21T09:47:46.493Z,11.20
2022-11-21T09:50:29.907Z,10.60
2022-11-21T09:53:26.680Z,10.80
2022-11-21T09:56:05.594Z,11.10
2022-11-21T09:58:47.675Z,11.20
2022-11-21T10:01:20.472Z,10.60
2022-11-21T10:03:53.293Z,10.40
2022-11-21T10:06:32.630Z,10.20
2022-11-21T10:09:16.861Z,10.00
2022-11-21T10:12:37.429Z,9.90
2022-11-21T10:15:40.565Z,9.70
2022-11-21T10:19:00.665Z,9.80
2022-11-21T10:24:41.034Z,10.80
2022-11-21T10:27:23.538Z,10.60
2022-11-21T10:30:05.527Z,10.10
2022-11-21T10:32:46.898Z,10.00
2022-11-21T10:35:25.278Z,10.10
2022-11-21T10:38:03.392Z,10.30
2022-11-21T10:40:51.779Z,10.70
2022-11-21T10:43:41.973Z,10.70
2022-11-21T10:49:02.817Z,11.30
2022-11-21T10:52:05.246Z,11.40
2022-11-21T10:55:02.640Z,11.90
2022-11-21T10:57:55.698Z,11.80
2022-11-21T11:00:28.916Z,11.50
2022-11-21T11:03:05.654Z,11.60
2022-11-21T11:05:39.711Z,11.60
2022-11-21T11:08:15.068Z,11.90
2022-11-21T11:11:15.415Z,12.50
2022-11-21T11:14:05.272Z,12.40
2022-11-21T11:16:46.450Z,15.50
2022-11-21T11:19:35.309Z,12.00
2022-11-21T11:22:29.614Z,11.60
2022-11-21T11:25:04.989Z,11.60
2022-11-21T11:27:38.148Z,11.80
2022-11-21T11:30:17.233Z,11.70
2022-11-21T11:35:23.741Z,11.90
2022-11-21T11:38:03.839Z,11.80
2022-11-21T11:40:38.965Z,11.50
2022-11-21T11:44:04.552Z,11.50
2022-11-21T11:47:11.342Z,11.50
2022-11-21T11:50:07.695Z,11.30
2022-11-21T11:53:07.302Z,11.50
2022-11-21T11:55:54.734Z,12.20
2022-11-21T11:59:10.062Z,12.00
2022-11-21T12:02:22.164Z,12.30
2022-11-21T12:05:03.353Z,12.50
2022-11-21T12:08:38.673Z,13.00
2022-11-21T12:11:14.315Z,13.70
2022-11-21T12:13:50.145Z,13.50
2022-11-21T12:16:25.136Z,12.30
2022-11-21T12:19:13.677Z,12.30
2022-11-21T12:21:46.126Z,12.20
2022-11-21T12:24:21.418Z,12.40
2022-11-21T12:27:16.345Z,12.30
2022-11-21T12:30:25.906Z,12.20
2022-11-21T12:33:12.873Z,11.90
2022-11-21T12:36:17.735Z,12.00
2022-11-21T12:39:31.633Z,12.10
2022-11-21T12:42:44.313Z,12.10
2022-11-21T12:45:39.556Z,12.30
2022-11-21T12:48:52.386Z,12.30
2022-11-21T12:52:27.229Z,12.30
2022-11-21T12:55:13.852Z,12.20
2022-11-21T12:58:11.174Z,12.30
2022-11-21T13:01:06.944Z,12.20
2022-11-21T13:04:12.448Z,12.10
2022-11-21T13:06:48.554Z,12.00
2022-11-21T13:09:23.230Z,11.90
2022-11-21T13:12:16.680Z,11.90
2022-11-21T13:15:38.998Z,11.80
2022-11-21T13:18:22.856Z,11.70
2022-11-21T13:23:42.319Z,11.60
2022-11-21T13:26:26.468Z,11.60
2022-11-21T13:29:15.108Z,11.60
2022-11-21T13:34:36.908Z,11.50
2022-11-21T13:39:41.957Z,11.30
2022-11-21T13:42:33.144Z,11.40
2022-11-21T13:45:56.936Z,11.40
2022-11-21T13:48:29.143Z,11.40
2022-11-21T13:54:05.610Z,11.50
2022-11-21T13:59:55.680Z,11.50
2022-11-21T14:02:54.328Z,11.40
2022-11-21T14:05:52.781Z,11.40
2022-11-21T14:08:27.823Z,11.20
2022-11-21T14:11:32.607Z,11.10
2022-11-21T14:16:44.688Z,11.10
2022-11-21T14:19:21.000Z,11.10
2022-11-21T14:21:55.290Z,11.10
2022-11-21T14:24:28.774Z,11.20
2022-11-21T14:27:02.408Z,11.10
2022-11-21T14:29:41.891Z,11.10
2022-11-21T14:32:16.329Z,11.00
2022-11-21T14:34:48.204Z,11.00
2022-11-21T14:37:21.969Z,11.00
2022-11-21T14:42:37.673Z,10.90
2022-11-21T14:45:24.159Z,10.80
2022-11-21T14:47:56.023Z,10.70
2022-11-21T14:50:31.939Z,10.70
2022-11-21T14:53:04.598Z,10.70
2022-11-21T14:55:36.980Z,10.60
2022-11-21T14:58:10.235Z,10.50
2022-11-21T15:03:32.978Z,10.30
2022-11-21T15:06:11.171Z,11.70
2022-11-21T15:11:42.985Z,10.00
2022-11-21T15:14:38.450Z,9.90
2022-11-21T15:17:16.535Z,9.80
2022-11-21T15:20:23.542Z,9.70
2022-11-21T15:23:01.708Z,9.40
2022-11-21T15:25:47.699Z,9.30
2022-11-21T15:28:19.571Z,9.20
2022-11-21T15:31:20.468Z,9.10
2022-11-21T15:37:12.928Z,8.90
2022-11-21T15:42:40.002Z,8.90
2022-11-21T15:45:19.786Z,8.80
2022-11-21T15:50:26.634Z,8.80
2022-11-21T15:55:31.596Z,8.70
2022-11-21T15:57:13.716Z,9.00
2022-11-21T15:58:04.417Z,8.60
2022-11-21T16:00:36.327Z,8.30
2022-11-21T16:10:50.673Z,8.30
2022-11-21T16:18:29.752Z,8.30
2022-11-21T16:21:10.522Z,8.30
2022-11-21T16:23:43.483Z,8.30
2022-11-21T16:28:48.644Z,8.30
2022-11-21T16:31:24.160Z,8.30
2022-11-21T16:33:57.274Z,8.40
2022-11-21T16:36:31.120Z,8.40
2022-11-21T16:39:09.930Z,8.40
2022-11-21T16:44:17.522Z,8.30
2022-11-21T16:49:25.053Z,8.20
2022-11-21T16:51:59.329Z,8.20
2022-11-21T16:57:05.047Z,8.20
2022-11-21T17:02:11.345Z,8.10
2022-11-21T17:07:16.007Z,8.20
2022-11-21T17:09:48.767Z,8.30
2022-11-21T17:12:20.675Z,8.30
2022-11-21T17:14:54.946Z,8.30
2022-11-21T17:17:26.898Z,8.30
2022-11-21T17:22:33.741Z,8.20
2022-11-21T17:25:07.111Z,8.30
2022-11-21T17:32:45.254Z,8.30
2022-11-21T17:35:18.172Z,8.30
2022-11-21T17:40:22.770Z,8.30
2022-11-21T17:42:55.113Z,8.30
2022-11-21T17:45:27.006Z,8.20
2022-11-21T17:47:59.345Z,8.30
2022-11-21T17:55:37.796Z,8.00
2022-11-21T17:58:14.636Z,8.10
2022-11-21T18:00:46.737Z,8.10
2022-11-21T18:06:13.672Z,8.20
2022-11-21T18:08:48.279Z,8.20
2022-11-21T18:11:21.951Z,8.30
2022-11-21T18:13:54.628Z,8.30
2022-11-21T18:16:30.483Z,8.30
2022-11-21T18:19:03.120Z,8.30
2022-11-21T18:21:36.634Z,8.40
2022-11-21T18:24:08.780Z,8.50
2022-11-21T18:26:42.027Z,8.40
2022-11-21T18:32:07.709Z,8.20
2022-11-21T18:34:39.871Z,8.00
2022-11-21T18:37:12.903Z,8.20
2022-11-21T18:39:45.020Z,8.10
2022-11-21T18:42:18.808Z,8.20
2022-11-21T18:44:51.785Z,8.20
2022-11-21T18:47:24.531Z,8.20
2022-11-21T18:49:56.600Z,8.00
2022-11-21T18:52:50.576Z,10.00
2022-11-21T18:55:22.976Z,11.90
2022-11-21T18:57:56.735Z,11.30
2022-11-21T19:00:28.645Z,10.10
2022-11-21T19:05:34.086Z,9.00
2022-11-21T19:08:06.090Z,8.50
2022-11-21T19:10:43.449Z,8.30
2022-11-21T19:13:16.577Z,8.30
2022-11-21T19:15:49.341Z,8.30
2022-11-21T19:18:22.085Z,8.20
2022-11-21T19:20:54.364Z,8.10
2022-11-21T19:23:26.237Z,8.00
2022-11-21T19:26:11.470Z,8.00
2022-11-21T19:28:45.729Z,8.00
2022-11-21T19:31:18.827Z,8.10
2022-11-21T19:33:51.990Z,8.00
2022-11-21T19:36:24.593Z,7.90
2022-11-21T19:38:57.332Z,7.90
2022-11-21T19:46:38.461Z,7.90
2022-11-21T19:49:12.608Z,7.90
2022-11-21T19:51:45.182Z,7.90
2022-11-21T19:54:18.338Z,7.90
2022-11-21T19:56:51.029Z,7.90
2022-11-21T19:59:22.964Z,7.90
2022-11-21T20:07:07.436Z,7.70
2022-11-21T20:09:40.473Z,7.70
2022-11-21T20:12:12.841Z,7.70
2022-11-21T20:14:45.155Z,7.80
2022-11-21T20:17:17.483Z,7.90
2022-11-21T20:19:50.837Z,7.90
2022-11-21T20:22:22.909Z,8.00
2022-11-21T20:24:54.843Z,8.00
2022-11-21T20:27:28.291Z,8.10
2022-11-21T20:30:01.065Z,8.30
2022-11-21T20:32:33.747Z,8.40
2022-11-21T20:37:39.455Z,8.60
2022-11-21T20:40:12.788Z,8.90
2022-11-21T20:42:45.136Z,8.90
2022-11-21T20:48:14.651Z,9.30
2022-11-21T20:53:58.533Z,9.70
2022-11-21T20:56:36.165Z,9.70
2022-11-21T20:59:09.546Z,9.80
2022-11-21T21:01:42.361Z,10.00
2022-11-21T21:04:15.073Z,10.10
2022-11-21T21:06:47.370Z,10.20
2022-11-21T21:09:19.656Z,10.30
2022-11-21T21:16:59.053Z,10.30
2022-11-21T21:19:31.602Z,10.40
2022-11-21T21:22:04.971Z,10.40
2022-11-21T21:24:37.857Z,10.40
2022-11-21T21:27:10.232Z,10.40
2022-11-21T21:29:42.091Z,10.40
2022-11-21T21:32:15.051Z,10.40
2022-11-21T21:37:20.097Z,10.40
2022-11-21T21:39:52.173Z,10.40
2022-11-21T21:42:25.413Z,10.30
2022-11-21T21:44:57.750Z,10.30
2022-11-21T21:52:35.748Z,10.20
2022-11-21T21:55:08.067Z,10.10
2022-11-21T22:02:53.294Z,10.10
2022-11-21T22:05:26.079Z,10.10
2022-11-21T22:07:58.655Z,10.00
2022-11-21T22:13:05.101Z,9.90
2022-11-21T22:15:37.759Z,9.90
2022-11-21T22:18:09.627Z,9.80
2022-11-21T22:20:42.347Z,9.70
2022-11-21T22:23:14.254Z,9.70
2022-11-21T22:25:47.429Z,9.70
2022-11-21T22:30:59.429Z,9.60
2022-11-21T22:33:32.839Z,9.70
2022-11-21T22:36:08.364Z,9.70
2022-11-21T22:38:41.432Z,9.80
2022-11-21T22:41:18.477Z,9.80
2022-11-21T22:43:57.844Z,9.90
2022-11-21T22:49:04.074Z,9.90
2022-11-21T22:51:35.936Z,9.90
2022-11-21T22:56:40.992Z,10.00
2022-11-21T22:59:14.326Z,9.90
2022-11-21T23:04:19.360Z,9.90
2022-11-21T23:09:24.513Z,9.90
2022-11-21T23:11:56.394Z,9.80
2022-11-21T23:17:01.798Z,9.80
2022-11-21T23:19:37.743Z,9.70
2022-11-21T23:22:09.627Z,9.70
2022-11-21T23:24:42.356Z,9.70
2022-11-21T23:27:14.681Z,9.70
2022-11-21T23:29:46.527Z,9.70
2022-11-21T23:32:19.203Z,9.70
2022-11-21T23:34:51.503Z,9.70
2022-11-21T23:39:56.464Z,9.70
2022-11-21T23:42:28.328Z,9.70
2022-11-21T23:45:01.057Z,9.70
2022-11-21T23:47:33.403Z,9.60
2022-11-21T23:50:06.688Z,9.60
2022-11-21T23:52:39.004Z,9.60
2022-11-21T23:55:11.629Z,9.60
2022-11-21T23:57:48.854Z,9.60
